sensor_id;sensor_type;location;lat;lon;timestamp;P1;durP1;ratioP1;P2;durP2;ratioP2
7783;SDS011;19359;51.402;6.778;2022-10-18T00:00:50;8.13;;;2.60;;
7783;SDS011;19359;51.402;6.778;2022-10-18T00:03:17;5.20;;;2.92;;
7783;SDS011;19359;51.402;6.778;2022-10-18T00:05:45;6.20;;;2.83;;
7783;SDS011;19359;51.402;6.778;2022-10-18T00:08:13;5.78;;;2.67;;
7783;SDS011;19359;51.402;6.778;2022-10-18T00:10:40;5.85;;;3.53;;
7783;SDS011;19359;51.402;6.778;2022-10-18T00:13:07;7.07;;;3.47;;
7783;SDS011;19359;51.402;6.778;2022-10-18T00:15:33;8.23;;;3.03;;
7783;SDS011;19359;51.402;6.778;2022-10-18T00:18:00;2.95;;;2.75;;
7783;SDS011;19359;51.402;6.778;2022-10-18T00:20:27;13.30;;;3.28;;
7783;SDS011;19359;51.402;6.778;2022-10-18T00:22:54;7.82;;;3.72;;
7783;SDS011;19359;51.402;6.778;2022-10-18T00:25:22;3.75;;;2.67;;
7783;SDS011;19359;51.402;6.778;2022-10-18T00:27:48;8.48;;;3.60;;
7783;SDS011;19359;51.402;6.778;2022-10-18T00:30:15;2.88;;;2.67;;
7783;SDS011;19359;51.402;6.778;2022-10-18T00:32:42;4.97;;;3.38;;
7783;SDS011;19359;51.402;6.778;2022-10-18T00:35:08;5.68;;;2.58;;
7783;SDS011;19359;51.402;6.778;2022-10-18T00:37:35;5.28;;;2.88;;
7783;SDS011;19359;51.402;6.778;2022-10-18T00:40:02;13.75;;;3.15;;
7783;SDS011;19359;51.402;6.778;2022-10-18T00:42:33;3.95;;;2.83;;
7783;SDS011;19359;51.402;6.778;2022-10-18T00:45:04;4.03;;;3.03;;
7783;SDS011;19359;51.402;6.778;2022-10-18T00:47:44;6.15;;;3.50;;
7783;SDS011;19359;51.402;6.778;2022-10-18T00:50:13;6.03;;;3.00;;
7783;SDS011;19359;51.402;6.778;2022-10-18T00:52:41;6.30;;;3.17;;
7783;SDS011;19359;51.402;6.778;2022-10-18T00:55:11;5.03;;;3.00;;
7783;SDS011;19359;51.402;6.778;2022-10-18T00:57:40;6.07;;;3.30;;
7783;SDS011;19359;51.402;6.778;2022-10-18T01:00:08;3.22;;;3.00;;
7783;SDS011;19359;51.402;6.778;2022-10-18T01:02:36;10.65;;;3.40;;
7783;SDS011;19359;51.402;6.778;2022-10-18T01:05:05;3.55;;;2.78;;
7783;SDS011;19359;51.402;6.778;2022-10-18T01:07:36;5.63;;;2.75;;
7783;SDS011;19359;51.402;6.778;2022-10-18T01:10:26;3.97;;;2.75;;
7783;SDS011;19359;51.402;6.778;2022-10-18T01:13:01;13.77;;;3.38;;
7783;SDS011;19359;51.402;6.778;2022-10-18T01:15:34;8.73;;;2.97;;
7783;SDS011;19359;51.402;6.778;2022-10-18T01:18:06;6.30;;;3.45;;
7783;SDS011;19359;51.402;6.778;2022-10-18T01:23:38;6.72;;;2.95;;
7783;SDS011;19359;51.402;6.778;2022-10-18T01:26:28;10.80;;;4.50;;
7783;SDS011;19359;51.402;6.778;2022-10-18T01:29:10;4.43;;;3.40;;
7783;SDS011;19359;51.402;6.778;2022-10-18T01:31:47;6.38;;;3.15;;
7783;SDS011;19359;51.402;6.778;2022-10-18T01:34:18;3.53;;;3.20;;
7783;SDS011;19359;51.402;6.778;2022-10-18T01:36:46;4.32;;;3.80;;
7783;SDS011;19359;51.402;6.778;2022-10-18T01:39:17;3.38;;;3.08;;
7783;SDS011;19359;51.402;6.778;2022-10-18T01:41:48;6.65;;;3.40;;
7783;SDS011;19359;51.402;6.778;2022-10-18T01:44:18;5.10;;;2.95;;
7783;SDS011;19359;51.402;6.778;2022-10-18T01:46:49;6.57;;;3.20;;
7783;SDS011;19359;51.402;6.778;2022-10-18T01:49:19;6.20;;;3.17;;
7783;SDS011;19359;51.402;6.778;2022-10-18T01:51:46;4.43;;;2.72;;
7783;SDS011;19359;51.402;6.778;2022-10-18T01:54:14;4.38;;;3.28;;
7783;SDS011;19359;51.402;6.778;2022-10-18T01:56:46;4.95;;;3.38;;
7783;SDS011;19359;51.402;6.778;2022-10-18T01:59:29;3.58;;;3.28;;
7783;SDS011;19359;51.402;6.778;2022-10-18T02:02:07;3.25;;;2.95;;
7783;SDS011;19359;51.402;6.778;2022-10-18T02:04:42;4.22;;;3.25;;
7783;SDS011;19359;51.402;6.778;2022-10-18T02:07:15;7.28;;;3.55;;
7783;SDS011;19359;51.402;6.778;2022-10-18T02:09:51;9.48;;;3.63;;
7783;SDS011;19359;51.402;6.778;2022-10-18T02:12:25;7.90;;;3.70;;
7783;SDS011;19359;51.402;6.778;2022-10-18T02:14:54;4.85;;;2.88;;
7783;SDS011;19359;51.402;6.778;2022-10-18T02:17:23;6.05;;;3.17;;
7783;SDS011;19359;51.402;6.778;2022-10-18T02:19:53;10.52;;;3.28;;
7783;SDS011;19359;51.402;6.778;2022-10-18T02:22:22;2.50;;;2.47;;
7783;SDS011;19359;51.402;6.778;2022-10-18T02:24:52;4.15;;;3.10;;
7783;SDS011;19359;51.402;6.778;2022-10-18T02:27:21;7.25;;;3.42;;
7783;SDS011;19359;51.402;6.778;2022-10-18T02:29:48;5.38;;;3.67;;
7783;SDS011;19359;51.402;6.778;2022-10-18T02:32:17;5.57;;;3.47;;
7783;SDS011;19359;51.402;6.778;2022-10-18T02:34:52;9.60;;;3.22;;
7783;SDS011;19359;51.402;6.778;2022-10-18T02:37:24;3.92;;;3.38;;
7783;SDS011;19359;51.402;6.778;2022-10-18T02:39:56;4.18;;;3.28;;
7783;SDS011;19359;51.402;6.778;2022-10-18T02:42:23;4.15;;;3.03;;
7783;SDS011;19359;51.402;6.778;2022-10-18T02:44:49;5.93;;;2.90;;
7783;SDS011;19359;51.402;6.778;2022-10-18T02:47:16;8.27;;;3.03;;
7783;SDS011;19359;51.402;6.778;2022-10-18T02:49:43;5.22;;;2.72;;
7783;SDS011;19359;51.402;6.778;2022-10-18T02:52:11;4.80;;;2.67;;
7783;SDS011;19359;51.402;6.778;2022-10-18T02:54:37;9.23;;;3.38;;
7783;SDS011;19359;51.402;6.778;2022-10-18T02:57:04;5.43;;;3.58;;
7783;SDS011;19359;51.402;6.778;2022-10-18T02:59:31;3.45;;;2.92;;
7783;SDS011;19359;51.402;6.778;2022-10-18T03:01:58;4.32;;;2.58;;
7783;SDS011;19359;51.402;6.778;2022-10-18T03:04:24;7.63;;;2.80;;
7783;SDS011;19359;51.402;6.778;2022-10-18T03:06:51;5.25;;;3.13;;
7783;SDS011;19359;51.402;6.778;2022-10-18T03:09:19;6.78;;;3.05;;
7783;SDS011;19359;51.402;6.778;2022-10-18T03:11:46;7.88;;;3.35;;
7783;SDS011;19359;51.402;6.778;2022-10-18T03:14:12;4.00;;;2.92;;
7783;SDS011;19359;51.402;6.778;2022-10-18T03:16:39;8.85;;;3.25;;
7783;SDS011;19359;51.402;6.778;2022-10-18T03:19:06;3.55;;;3.03;;
7783;SDS011;19359;51.402;6.778;2022-10-18T03:21:33;10.32;;;2.92;;
7783;SDS011;19359;51.402;6.778;2022-10-18T03:23:59;4.03;;;3.28;;
7783;SDS011;19359;51.402;6.778;2022-10-18T03:26:28;11.15;;;2.97;;
7783;SDS011;19359;51.402;6.778;2022-10-18T03:28:55;5.85;;;3.38;;
7783;SDS011;19359;51.402;6.778;2022-10-18T03:31:22;6.97;;;3.85;;
7783;SDS011;19359;51.402;6.778;2022-10-18T03:33:49;6.18;;;4.22;;
7783;SDS011;19359;51.402;6.778;2022-10-18T03:36:16;6.88;;;2.65;;
7783;SDS011;19359;51.402;6.778;2022-10-18T03:38:42;3.63;;;3.13;;
7783;SDS011;19359;51.402;6.778;2022-10-18T03:41:09;3.92;;;3.35;;
7783;SDS011;19359;51.402;6.778;2022-10-18T03:43:37;8.65;;;3.78;;
7783;SDS011;19359;51.402;6.778;2022-10-18T03:46:04;3.78;;;3.53;;
7783;SDS011;19359;51.402;6.778;2022-10-18T03:48:31;4.05;;;3.75;;
7783;SDS011;19359;51.402;6.778;2022-10-18T03:50:57;5.70;;;3.40;;
7783;SDS011;19359;51.402;6.778;2022-10-18T03:53:24;9.07;;;3.97;;
7783;SDS011;19359;51.402;6.778;2022-10-18T03:55:51;3.13;;;2.92;;
7783;SDS011;19359;51.402;6.778;2022-10-18T03:58:18;4.90;;;3.85;;
7783;SDS011;19359;51.402;6.778;2022-10-18T04:00:48;4.22;;;3.20;;
7783;SDS011;19359;51.402;6.778;2022-10-18T04:03:15;4.82;;;3.15;;
7783;SDS011;19359;51.402;6.778;2022-10-18T04:05:43;3.20;;;2.90;;
7783;SDS011;19359;51.402;6.778;2022-10-18T04:08:09;6.20;;;3.55;;
7783;SDS011;19359;51.402;6.778;2022-10-18T04:10:36;4.47;;;3.28;;
7783;SDS011;19359;51.402;6.778;2022-10-18T04:13:04;10.50;;;3.75;;
7783;SDS011;19359;51.402;6.778;2022-10-18T04:15:31;6.78;;;3.92;;
7783;SDS011;19359;51.402;6.778;2022-10-18T04:17:59;8.00;;;3.85;;
7783;SDS011;19359;51.402;6.778;2022-10-18T04:20:26;10.32;;;3.78;;
7783;SDS011;19359;51.402;6.778;2022-10-18T04:22:54;15.38;;;3.60;;
7783;SDS011;19359;51.402;6.778;2022-10-18T04:25:21;4.47;;;3.88;;
7783;SDS011;19359;51.402;6.778;2022-10-18T04:27:48;11.85;;;3.88;;
7783;SDS011;19359;51.402;6.778;2022-10-18T04:30:15;4.07;;;3.47;;
7783;SDS011;19359;51.402;6.778;2022-10-18T04:32:42;3.70;;;3.25;;
7783;SDS011;19359;51.402;6.778;2022-10-18T04:35:10;4.78;;;3.67;;
7783;SDS011;19359;51.402;6.778;2022-10-18T04:37:37;4.50;;;4.20;;
7783;SDS011;19359;51.402;6.778;2022-10-18T04:40:04;6.68;;;3.85;;
7783;SDS011;19359;51.402;6.778;2022-10-18T04:42:32;5.47;;;3.67;;
7783;SDS011;19359;51.402;6.778;2022-10-18T04:44:58;6.57;;;3.50;;
7783;SDS011;19359;51.402;6.778;2022-10-18T04:47:25;5.57;;;3.58;;
7783;SDS011;19359;51.402;6.778;2022-10-18T04:49:52;8.90;;;3.05;;
7783;SDS011;19359;51.402;6.778;2022-10-18T04:52:20;7.97;;;4.43;;
7783;SDS011;19359;51.402;6.778;2022-10-18T04:54:46;3.75;;;3.25;;
7783;SDS011;19359;51.402;6.778;2022-10-18T04:57:13;9.80;;;4.53;;
7783;SDS011;19359;51.402;6.778;2022-10-18T04:59:40;5.50;;;4.00;;
7783;SDS011;19359;51.402;6.778;2022-10-18T05:02:06;8.95;;;4.18;;
7783;SDS011;19359;51.402;6.778;2022-10-18T05:04:34;7.40;;;5.18;;
7783;SDS011;19359;51.402;6.778;2022-10-18T05:07:01;10.05;;;4.80;;
7783;SDS011;19359;51.402;6.778;2022-10-18T05:09:31;9.43;;;4.82;;
7783;SDS011;19359;51.402;6.778;2022-10-18T05:11:58;8.23;;;3.15;;
7783;SDS011;19359;51.402;6.778;2022-10-18T05:14:24;4.88;;;4.38;;
7783;SDS011;19359;51.402;6.778;2022-10-18T05:16:51;8.20;;;5.03;;
7783;SDS011;19359;51.402;6.778;2022-10-18T05:19:18;9.35;;;5.32;;
7783;SDS011;19359;51.402;6.778;2022-10-18T05:21:44;9.35;;;5.15;;
7783;SDS011;19359;51.402;6.778;2022-10-18T05:24:11;12.82;;;7.60;;
7783;SDS011;19359;51.402;6.778;2022-10-18T05:26:39;10.70;;;5.47;;
7783;SDS011;19359;51.402;6.778;2022-10-18T05:29:06;7.10;;;5.18;;
7783;SDS011;19359;51.402;6.778;2022-10-18T05:31:33;9.57;;;5.38;;
7783;SDS011;19359;51.402;6.778;2022-10-18T05:33:59;6.03;;;5.10;;
7783;SDS011;19359;51.402;6.778;2022-10-18T05:36:26;10.75;;;6.07;;
7783;SDS011;19359;51.402;6.778;2022-10-18T05:38:53;9.18;;;7.25;;
7783;SDS011;19359;51.402;6.778;2022-10-18T05:41:20;11.27;;;7.35;;
7783;SDS011;19359;51.402;6.778;2022-10-18T05:43:48;8.75;;;7.53;;
7783;SDS011;19359;51.402;6.778;2022-10-18T05:46:15;34.47;;;9.98;;
7783;SDS011;19359;51.402;6.778;2022-10-18T05:48:42;29.33;;;7.97;;
7783;SDS011;19359;51.402;6.778;2022-10-18T05:51:09;23.98;;;9.27;;
7783;SDS011;19359;51.402;6.778;2022-10-18T05:53:36;15.10;;;7.43;;
7783;SDS011;19359;51.402;6.778;2022-10-18T05:56:03;16.20;;;7.38;;
7783;SDS011;19359;51.402;6.778;2022-10-18T05:58:30;10.57;;;6.68;;
7783;SDS011;19359;51.402;6.778;2022-10-18T06:00:58;12.75;;;7.13;;
7783;SDS011;19359;51.402;6.778;2022-10-18T06:03:26;13.68;;;6.78;;
7783;SDS011;19359;51.402;6.778;2022-10-18T06:05:57;16.17;;;7.80;;
7783;SDS011;19359;51.402;6.778;2022-10-18T06:08:25;25.98;;;8.95;;
7783;SDS011;19359;51.402;6.778;2022-10-18T06:10:51;21.05;;;8.23;;
7783;SDS011;19359;51.402;6.778;2022-10-18T06:13:18;20.27;;;10.32;;
7783;SDS011;19359;51.402;6.778;2022-10-18T06:15:45;29.58;;;10.02;;
7783;SDS011;19359;51.402;6.778;2022-10-18T06:18:13;35.85;;;10.85;;
7783;SDS011;19359;51.402;6.778;2022-10-18T06:20:40;30.20;;;8.98;;
7783;SDS011;19359;51.402;6.778;2022-10-18T06:23:07;25.23;;;10.27;;
7783;SDS011;19359;51.402;6.778;2022-10-18T06:25:33;15.13;;;10.23;;
7783;SDS011;19359;51.402;6.778;2022-10-18T06:28:01;20.95;;;12.07;;
7783;SDS011;19359;51.402;6.778;2022-10-18T06:30:29;21.83;;;11.65;;
7783;SDS011;19359;51.402;6.778;2022-10-18T06:32:58;19.60;;;11.13;;
7783;SDS011;19359;51.402;6.778;2022-10-18T06:35:26;30.40;;;11.85;;
7783;SDS011;19359;51.402;6.778;2022-10-18T06:37:53;22.90;;;11.57;;
7783;SDS011;19359;51.402;6.778;2022-10-18T06:40:19;18.05;;;12.18;;
7783;SDS011;19359;51.402;6.778;2022-10-18T06:42:46;15.93;;;12.65;;
7783;SDS011;19359;51.402;6.778;2022-10-18T06:45:13;27.83;;;11.55;;
7783;SDS011;19359;51.402;6.778;2022-10-18T06:47:42;20.90;;;11.48;;
7783;SDS011;19359;51.402;6.778;2022-10-18T06:50:09;23.25;;;12.43;;
7783;SDS011;19359;51.402;6.778;2022-10-18T06:52:38;19.10;;;12.40;;
7783;SDS011;19359;51.402;6.778;2022-10-18T06:55:06;21.55;;;13.50;;
7783;SDS011;19359;51.402;6.778;2022-10-18T06:57:33;24.75;;;14.43;;
7783;SDS011;19359;51.402;6.778;2022-10-18T07:00:00;16.77;;;11.65;;
7783;SDS011;19359;51.402;6.778;2022-10-18T07:02:28;21.42;;;12.57;;
7783;SDS011;19359;51.402;6.778;2022-10-18T07:04:54;24.42;;;12.50;;
7783;SDS011;19359;51.402;6.778;2022-10-18T07:07:21;29.38;;;14.23;;
7783;SDS011;19359;51.402;6.778;2022-10-18T07:09:49;26.02;;;16.83;;
7783;SDS011;19359;51.402;6.778;2022-10-18T07:12:16;26.80;;;16.42;;
7783;SDS011;19359;51.402;6.778;2022-10-18T07:14:42;24.10;;;15.75;;
7783;SDS011;19359;51.402;6.778;2022-10-18T07:17:11;24.60;;;16.52;;
7783;SDS011;19359;51.402;6.778;2022-10-18T07:19:37;26.80;;;16.90;;
7783;SDS011;19359;51.402;6.778;2022-10-18T07:22:04;22.63;;;16.27;;
7783;SDS011;19359;51.402;6.778;2022-10-18T07:24:31;21.50;;;15.95;;
7783;SDS011;19359;51.402;6.778;2022-10-18T07:26:59;21.85;;;15.60;;
7783;SDS011;19359;51.402;6.778;2022-10-18T07:29:25;29.77;;;16.30;;
7783;SDS011;19359;51.402;6.778;2022-10-18T07:31:52;24.25;;;16.17;;
7783;SDS011;19359;51.402;6.778;2022-10-18T07:34:19;24.45;;;16.73;;
7783;SDS011;19359;51.402;6.778;2022-10-18T07:36:45;26.80;;;16.83;;
7783;SDS011;19359;51.402;6.778;2022-10-18T07:39:12;25.10;;;18.20;;
7783;SDS011;19359;51.402;6.778;2022-10-18T07:41:39;38.30;;;18.13;;
7783;SDS011;19359;51.402;6.778;2022-10-18T07:44:07;22.35;;;16.65;;
7783;SDS011;19359;51.402;6.778;2022-10-18T07:46:34;27.35;;;19.20;;
7783;SDS011;19359;51.402;6.778;2022-10-18T07:49:01;27.88;;;20.05;;
7783;SDS011;19359;51.402;6.778;2022-10-18T07:51:27;33.13;;;19.10;;
7783;SDS011;19359;51.402;6.778;2022-10-18T07:53:56;38.53;;;19.55;;
7783;SDS011;19359;51.402;6.778;2022-10-18T07:56:23;31.98;;;19.05;;
7783;SDS011;19359;51.402;6.778;2022-10-18T07:58:50;30.75;;;19.13;;
7783;SDS011;19359;51.402;6.778;2022-10-18T08:01:19;34.47;;;18.85;;
7783;SDS011;19359;51.402;6.778;2022-10-18T08:03:47;29.88;;;19.90;;
7783;SDS011;19359;51.402;6.778;2022-10-18T08:06:15;40.80;;;20.80;;
7783;SDS011;19359;51.402;6.778;2022-10-18T08:08:43;32.63;;;20.55;;
7783;SDS011;19359;51.402;6.778;2022-10-18T08:11:11;37.85;;;22.05;;
7783;SDS011;19359;51.402;6.778;2022-10-18T08:13:39;49.95;;;22.95;;
7783;SDS011;19359;51.402;6.778;2022-10-18T08:16:07;50.72;;;24.08;;
7783;SDS011;19359;51.402;6.778;2022-10-18T08:18:36;41.58;;;24.90;;
7783;SDS011;19359;51.402;6.778;2022-10-18T08:21:03;69.82;;;28.95;;
7783;SDS011;19359;51.402;6.778;2022-10-18T08:23:32;48.80;;;27.27;;
7783;SDS011;19359;51.402;6.778;2022-10-18T08:26:00;57.53;;;28.08;;
7783;SDS011;19359;51.402;6.778;2022-10-18T08:28:26;62.50;;;32.60;;
7783;SDS011;19359;51.402;6.778;2022-10-18T08:30:53;72.53;;;33.75;;
7783;SDS011;19359;51.402;6.778;2022-10-18T08:33:20;65.75;;;32.72;;
7783;SDS011;19359;51.402;6.778;2022-10-18T08:35:54;77.82;;;30.42;;
7783;SDS011;19359;51.402;6.778;2022-10-18T08:38:21;73.45;;;33.38;;
7783;SDS011;19359;51.402;6.778;2022-10-18T08:40:48;80.68;;;35.28;;
7783;SDS011;19359;51.402;6.778;2022-10-18T08:43:15;86.55;;;37.38;;
7783;SDS011;19359;51.402;6.778;2022-10-18T08:45:52;99.93;;;40.10;;
7783;SDS011;19359;51.402;6.778;2022-10-18T08:48:20;79.10;;;37.03;;
7783;SDS011;19359;51.402;6.778;2022-10-18T08:50:52;124.15;;;43.13;;
7783;SDS011;19359;51.402;6.778;2022-10-18T08:53:22;161.60;;;50.40;;
7783;SDS011;19359;51.402;6.778;2022-10-18T08:55:54;130.98;;;45.00;;
7783;SDS011;19359;51.402;6.778;2022-10-18T08:58:28;126.18;;;44.55;;
7783;SDS011;19359;51.402;6.778;2022-10-18T09:00:59;125.60;;;45.33;;
7783;SDS011;19359;51.402;6.778;2022-10-18T09:03:39;142.70;;;47.17;;
7783;SDS011;19359;51.402;6.778;2022-10-18T09:06:18;121.60;;;43.03;;
7783;SDS011;19359;51.402;6.778;2022-10-18T09:08:57;101.45;;;38.42;;
7783;SDS011;19359;51.402;6.778;2022-10-18T09:11:46;98.35;;;34.83;;
7783;SDS011;19359;51.402;6.778;2022-10-18T09:14:25;72.13;;;34.85;;
7783;SDS011;19359;51.402;6.778;2022-10-18T09:17:15;67.35;;;32.58;;
7783;SDS011;19359;51.402;6.778;2022-10-18T09:19:49;68.13;;;31.80;;
7783;SDS011;19359;51.402;6.778;2022-10-18T09:22:29;76.18;;;33.42;;
7783;SDS011;19359;51.402;6.778;2022-10-18T09:25:05;72.65;;;33.38;;
7783;SDS011;19359;51.402;6.778;2022-10-18T09:27:44;65.18;;;32.88;;
7783;SDS011;19359;51.402;6.778;2022-10-18T09:30:19;71.78;;;31.33;;
7783;SDS011;19359;51.402;6.778;2022-10-18T09:32:56;63.17;;;29.98;;
7783;SDS011;19359;51.402;6.778;2022-10-18T09:35:29;70.57;;;31.48;;
7783;SDS011;19359;51.402;6.778;2022-10-18T09:38:04;73.43;;;31.75;;
7783;SDS011;19359;51.402;6.778;2022-10-18T09:40:37;73.05;;;29.80;;
7783;SDS011;19359;51.402;6.778;2022-10-18T09:43:14;68.07;;;31.10;;
7783;SDS011;19359;51.402;6.778;2022-10-18T09:45:43;73.05;;;32.35;;
7783;SDS011;19359;51.402;6.778;2022-10-18T09:48:14;68.28;;;31.15;;
7783;SDS011;19359;51.402;6.778;2022-10-18T09:50:46;66.15;;;31.83;;
7783;SDS011;19359;51.402;6.778;2022-10-18T09:53:19;63.65;;;30.70;;
7783;SDS011;19359;51.402;6.778;2022-10-18T09:55:56;65.35;;;33.50;;
7783;SDS011;19359;51.402;6.778;2022-10-18T09:58:26;66.38;;;32.00;;
7783;SDS011;19359;51.402;6.778;2022-10-18T10:00:59;82.57;;;38.25;;
7783;SDS011;19359;51.402;6.778;2022-10-18T10:03:26;69.78;;;36.40;;
7783;SDS011;19359;51.402;6.778;2022-10-18T10:06:00;76.25;;;36.78;;
7783;SDS011;19359;51.402;6.778;2022-10-18T10:08:32;74.53;;;35.45;;
7783;SDS011;19359;51.402;6.778;2022-10-18T10:10:59;78.50;;;34.85;;
7783;SDS011;19359;51.402;6.778;2022-10-18T10:13:26;69.28;;;34.40;;
7783;SDS011;19359;51.402;6.778;2022-10-18T10:15:53;60.10;;;29.50;;
7783;SDS011;19359;51.402;6.778;2022-10-18T10:18:22;60.70;;;29.48;;
7783;SDS011;19359;51.402;6.778;2022-10-18T10:20:51;65.97;;;32.28;;
7783;SDS011;19359;51.402;6.778;2022-10-18T10:23:20;55.67;;;30.02;;
7783;SDS011;19359;51.402;6.778;2022-10-18T10:25:52;57.58;;;28.55;;
7783;SDS011;19359;51.402;6.778;2022-10-18T10:28:20;57.85;;;29.60;;
7783;SDS011;19359;51.402;6.778;2022-10-18T10:30:50;53.92;;;28.83;;
7783;SDS011;19359;51.402;6.778;2022-10-18T10:33:29;59.05;;;28.25;;
7783;SDS011;19359;51.402;6.778;2022-10-18T10:36:00;45.33;;;25.92;;
7783;SDS011;19359;51.402;6.778;2022-10-18T10:38:29;49.97;;;26.08;;
7783;SDS011;19359;51.402;6.778;2022-10-18T10:40:57;44.33;;;26.35;;
7783;SDS011;19359;51.402;6.778;2022-10-18T10:43:25;51.10;;;27.17;;
7783;SDS011;19359;51.402;6.778;2022-10-18T10:45:55;52.65;;;30.48;;
7783;SDS011;19359;51.402;6.778;2022-10-18T10:48:26;68.85;;;31.25;;
7783;SDS011;19359;51.402;6.778;2022-10-18T10:50:57;57.13;;;27.17;;
7783;SDS011;19359;51.402;6.778;2022-10-18T10:53:27;45.17;;;24.48;;
7783;SDS011;19359;51.402;6.778;2022-10-18T10:55:55;44.67;;;25.02;;
7783;SDS011;19359;51.402;6.778;2022-10-18T10:58:25;45.92;;;24.90;;
7783;SDS011;19359;51.402;6.778;2022-10-18T11:00:55;46.55;;;23.50;;
7783;SDS011;19359;51.402;6.778;2022-10-18T11:03:22;49.50;;;23.65;;
7783;SDS011;19359;51.402;6.778;2022-10-18T11:05:49;58.33;;;27.00;;
7783;SDS011;19359;51.402;6.778;2022-10-18T11:08:19;47.05;;;25.63;;
7783;SDS011;19359;51.402;6.778;2022-10-18T11:10:52;43.67;;;22.40;;
7783;SDS011;19359;51.402;6.778;2022-10-18T11:13:30;40.75;;;21.30;;
7783;SDS011;19359;51.402;6.778;2022-10-18T11:16:09;33.15;;;20.55;;
7783;SDS011;19359;51.402;6.778;2022-10-18T11:18:39;35.03;;;19.98;;
7783;SDS011;19359;51.402;6.778;2022-10-18T11:21:12;33.72;;;18.30;;
7783;SDS011;19359;51.402;6.778;2022-10-18T11:23:43;23.25;;;15.15;;
7783;SDS011;19359;51.402;6.778;2022-10-18T11:26:12;18.90;;;12.35;;
7783;SDS011;19359;51.402;6.778;2022-10-18T11:28:55;21.13;;;12.40;;
7783;SDS011;19359;51.402;6.778;2022-10-18T11:31:29;13.00;;;10.13;;
7783;SDS011;19359;51.402;6.778;2022-10-18T11:34:04;22.85;;;12.05;;
7783;SDS011;19359;51.402;6.778;2022-10-18T11:36:44;20.23;;;10.73;;
7783;SDS011;19359;51.402;6.778;2022-10-18T11:39:20;25.23;;;12.05;;
7783;SDS011;19359;51.402;6.778;2022-10-18T11:41:54;21.00;;;11.05;;
7783;SDS011;19359;51.402;6.778;2022-10-18T11:44:30;22.35;;;11.20;;
7783;SDS011;19359;51.402;6.778;2022-10-18T11:47:03;17.48;;;10.20;;
7783;SDS011;19359;51.402;6.778;2022-10-18T11:49:52;16.10;;;9.38;;
7783;SDS011;19359;51.402;6.778;2022-10-18T11:52:32;16.23;;;8.55;;
7783;SDS011;19359;51.402;6.778;2022-10-18T11:55:15;14.30;;;6.95;;
7783;SDS011;19359;51.402;6.778;2022-10-18T11:57:54;10.85;;;7.00;;
7783;SDS011;19359;51.402;6.778;2022-10-18T12:00:34;14.57;;;5.93;;
7783;SDS011;19359;51.402;6.778;2022-10-18T12:03:20;10.02;;;5.25;;
7783;SDS011;19359;51.402;6.778;2022-10-18T12:05:54;8.57;;;6.15;;
7783;SDS011;19359;51.402;6.778;2022-10-18T12:08:24;13.43;;;8.10;;
7783;SDS011;19359;51.402;6.778;2022-10-18T12:10:58;12.00;;;7.00;;
7783;SDS011;19359;51.402;6.778;2022-10-18T12:13:35;16.42;;;7.43;;
7783;SDS011;19359;51.402;6.778;2022-10-18T12:16:09;14.20;;;7.45;;
7783;SDS011;19359;51.402;6.778;2022-10-18T12:18:40;15.77;;;8.43;;
7783;SDS011;19359;51.402;6.778;2022-10-18T12:21:14;16.40;;;9.38;;
7783;SDS011;19359;51.402;6.778;2022-10-18T12:23:48;19.38;;;8.95;;
7783;SDS011;19359;51.402;6.778;2022-10-18T12:26:17;17.25;;;7.70;;
7783;SDS011;19359;51.402;6.778;2022-10-18T12:28:47;12.77;;;7.47;;
7783;SDS011;19359;51.402;6.778;2022-10-18T12:31:23;13.05;;;8.27;;
7783;SDS011;19359;51.402;6.778;2022-10-18T12:33:58;16.83;;;9.45;;
7783;SDS011;19359;51.402;6.778;2022-10-18T12:36:39;14.70;;;7.50;;
7783;SDS011;19359;51.402;6.778;2022-10-18T12:39:21;13.52;;;8.43;;
7783;SDS011;19359;51.402;6.778;2022-10-18T12:41:51;10.35;;;6.90;;
7783;SDS011;19359;51.402;6.778;2022-10-18T12:44:21;11.05;;;6.60;;
7783;SDS011;19359;51.402;6.778;2022-10-18T12:46:55;15.02;;;8.13;;
7783;SDS011;19359;51.402;6.778;2022-10-18T12:49:25;16.27;;;5.60;;
7783;SDS011;19359;51.402;6.778;2022-10-18T12:51:55;16.30;;;4.85;;
7783;SDS011;19359;51.402;6.778;2022-10-18T12:54:24;11.95;;;4.75;;
7783;SDS011;19359;51.402;6.778;2022-10-18T12:56:53;7.97;;;4.10;;
7783;SDS011;19359;51.402;6.778;2022-10-18T13:02:20;9.65;;;4.03;;
7783;SDS011;19359;51.402;6.778;2022-10-18T13:04:49;10.45;;;4.85;;
7783;SDS011;19359;51.402;6.778;2022-10-18T13:07:20;10.45;;;4.70;;
7783;SDS011;19359;51.402;6.778;2022-10-18T13:13:16;15.93;;;4.82;;
7783;SDS011;19359;51.402;6.778;2022-10-18T13:15:59;15.18;;;5.40;;
7783;SDS011;19359;51.402;6.778;2022-10-18T13:18:39;9.57;;;4.60;;
7783;SDS011;19359;51.402;6.778;2022-10-18T13:21:16;14.15;;;4.65;;
7783;SDS011;19359;51.402;6.778;2022-10-18T13:23:54;17.98;;;5.28;;
7783;SDS011;19359;51.402;6.778;2022-10-18T13:26:41;13.60;;;5.57;;
7783;SDS011;19359;51.402;6.778;2022-10-18T13:29:21;12.65;;;5.28;;
7783;SDS011;19359;51.402;6.778;2022-10-18T13:31:58;12.43;;;4.75;;
7783;SDS011;19359;51.402;6.778;2022-10-18T13:34:32;12.88;;;4.68;;
7783;SDS011;19359;51.402;6.778;2022-10-18T13:37:03;9.00;;;3.53;;
7783;SDS011;19359;51.402;6.778;2022-10-18T13:39:31;8.20;;;3.33;;
7783;SDS011;19359;51.402;6.778;2022-10-18T13:42:18;11.80;;;3.17;;
7783;SDS011;19359;51.402;6.778;2022-10-18T13:44:54;12.55;;;4.32;;
7783;SDS011;19359;51.402;6.778;2022-10-18T13:51:08;9.07;;;3.63;;
7783;SDS011;19359;51.402;6.778;2022-10-18T13:54:02;9.85;;;3.38;;
7783;SDS011;19359;51.402;6.778;2022-10-18T13:56:48;12.50;;;3.40;;
7783;SDS011;19359;51.402;6.778;2022-10-18T13:59:20;10.52;;;3.30;;
7783;SDS011;19359;51.402;6.778;2022-10-18T14:02:07;10.05;;;3.30;;
7783;SDS011;19359;51.402;6.778;2022-10-18T14:04:54;8.98;;;2.20;;
7783;SDS011;19359;51.402;6.778;2022-10-18T14:07:34;5.82;;;1.67;;
7783;SDS011;19359;51.402;6.778;2022-10-18T14:10:01;5.15;;;1.55;;
7783;SDS011;19359;51.402;6.778;2022-10-18T14:12:29;6.65;;;2.30;;
7783;SDS011;19359;51.402;6.778;2022-10-18T14:15:04;6.97;;;1.80;;
7783;SDS011;19359;51.402;6.778;2022-10-18T14:17:35;10.23;;;1.80;;
7783;SDS011;19359;51.402;6.778;2022-10-18T14:20:12;5.50;;;2.00;;
7783;SDS011;19359;51.402;6.778;2022-10-18T14:22:45;10.05;;;2.55;;
7783;SDS011;19359;51.402;6.778;2022-10-18T14:25:20;10.35;;;2.42;;
7783;SDS011;19359;51.402;6.778;2022-10-18T14:28:01;7.75;;;2.28;;
7783;SDS011;19359;51.402;6.778;2022-10-18T14:30:34;2.15;;;1.20;;
7783;SDS011;19359;51.402;6.778;2022-10-18T14:33:01;7.13;;;1.70;;
7783;SDS011;19359;51.402;6.778;2022-10-18T14:35:30;8.43;;;1.85;;
7783;SDS011;19359;51.402;6.778;2022-10-18T14:38:00;7.10;;;1.88;;
7783;SDS011;19359;51.402;6.778;2022-10-18T14:40:29;5.38;;;1.63;;
7783;SDS011;19359;51.402;6.778;2022-10-18T14:43:02;7.47;;;1.65;;
7783;SDS011;19359;51.402;6.778;2022-10-18T14:45:31;4.82;;;1.70;;
7783;SDS011;19359;51.402;6.778;2022-10-18T14:48:04;3.90;;;1.25;;
7783;SDS011;19359;51.402;6.778;2022-10-18T14:50:39;8.68;;;1.70;;
7783;SDS011;19359;51.402;6.778;2022-10-18T14:53:17;4.68;;;1.83;;
7783;SDS011;19359;51.402;6.778;2022-10-18T14:55:51;5.85;;;1.27;;
7783;SDS011;19359;51.402;6.778;2022-10-18T14:58:19;4.82;;;1.83;;
7783;SDS011;19359;51.402;6.778;2022-10-18T15:00:46;7.78;;;1.85;;
7783;SDS011;19359;51.402;6.778;2022-10-18T15:03:14;5.72;;;1.83;;
7783;SDS011;19359;51.402;6.778;2022-10-18T15:05:52;8.98;;;1.98;;
7783;SDS011;19359;51.402;6.778;2022-10-18T15:08:21;7.50;;;2.33;;
7783;SDS011;19359;51.402;6.778;2022-10-18T15:10:49;4.95;;;1.90;;
7783;SDS011;19359;51.402;6.778;2022-10-18T15:13:17;10.30;;;2.30;;
7783;SDS011;19359;51.402;6.778;2022-10-18T15:15:44;7.20;;;2.38;;
7783;SDS011;19359;51.402;6.778;2022-10-18T15:18:18;5.97;;;2.22;;
7783;SDS011;19359;51.402;6.778;2022-10-18T15:23:33;9.07;;;2.30;;